createdAt,value
2023-05-01T00:01:34.289Z,43.25
2023-05-01T00:03:36.053Z,43.15
2023-05-01T00:05:37.774Z,43.48
2023-05-01T00:07:39.214Z,43.22
2023-05-01T00:09:40.703Z,43.29
2023-05-01T00:11:42.093Z,43.34
2023-05-01T00:13:43.521Z,43.09
2023-05-01T00:15:44.927Z,43.11
2023-05-01T00:17:46.802Z,43.41
2023-05-01T00:19:52.792Z,43.59
2023-05-01T00:21:54.641Z,43.55
2023-05-01T00:23:56.139Z,43.62
2023-05-01T00:25:57.601Z,43.68
2023-05-01T00:27:59.808Z,43.48
2023-05-01T00:30:01.676Z,43.77
2023-05-01T00:32:03.268Z,43.59
2023-05-01T00:34:05.153Z,43.71
2023-05-01T00:36:07.234Z,44.03
2023-05-01T00:38:08.627Z,43.67
2023-05-01T00:40:10.195Z,43.66
2023-05-01T00:42:12.050Z,43.90
2023-05-01T00:44:13.688Z,43.84
2023-05-01T00:46:15.327Z,43.72
2023-05-01T00:48:17.141Z,43.84
2023-05-01T00:50:18.609Z,43.73
2023-05-01T00:52:20.063Z,43.96
2023-05-01T00:54:23.020Z,43.93
2023-05-01T00:56:26.263Z,43.94
2023-05-01T00:58:28.836Z,43.86
2023-05-01T01:00:31.034Z,43.78
2023-05-01T01:02:32.915Z,44.10
2023-05-01T01:04:34.737Z,44.16
2023-05-01T01:06:47.172Z,44.06
2023-05-01T01:09:27.329Z,44.07
2023-05-01T01:11:36.393Z,44.02
2023-05-01T01:13:51.979Z,44.21
2023-05-01T01:16:13.813Z,44.24
2023-05-01T01:19:02.382Z,44.25
2023-05-01T01:21:23.409Z,44.44
2023-05-01T01:23:35.105Z,44.13
2023-05-01T01:26:02.394Z,43.97
2023-05-01T01:28:33.070Z,44.28
2023-05-01T01:30:56.904Z,44.07
2023-05-01T01:33:35.849Z,44.04
2023-05-01T01:35:41.591Z,44.21
2023-05-01T01:38:05.609Z,44.03
2023-05-01T01:40:08.730Z,44.16
2023-05-01T01:42:15.824Z,44.37
2023-05-01T01:44:23.136Z,44.40
2023-05-01T01:46:26.394Z,44.58
2023-05-01T01:48:34.586Z,44.56
2023-05-01T01:50:39.126Z,44.41
2023-05-01T01:52:43.184Z,44.37
2023-05-01T01:54:54.630Z,44.32
2023-05-01T01:56:58.345Z,44.14
2023-05-01T01:59:01.331Z,44.37
2023-05-01T02:01:04.267Z,44.44
2023-05-01T02:03:06.559Z,44.47
2023-05-01T02:05:11.345Z,44.32
2023-05-01T02:07:14.794Z,44.54
2023-05-01T02:09:19.400Z,44.46
2023-05-01T02:11:22.124Z,44.62
2023-05-01T02:13:24.620Z,44.46
2023-05-01T02:15:27.914Z,44.58
2023-05-01T02:17:30.713Z,44.39
2023-05-01T02:19:34.600Z,44.69
2023-05-01T02:21:38.505Z,44.50
2023-05-01T02:23:40.491Z,44.60
2023-05-01T02:25:43.724Z,44.52
2023-05-01T02:27:50.365Z,44.42
2023-05-01T02:29:53.457Z,44.34
2023-05-01T02:31:55.653Z,44.45
2023-05-01T02:33:57.218Z,44.43
2023-05-01T02:35:58.651Z,44.64
2023-05-01T02:38:00.227Z,44.70
2023-05-01T02:40:02.878Z,44.43
2023-05-01T02:42:06.636Z,44.68
2023-05-01T02:44:11.319Z,44.66
2023-05-01T02:46:15.202Z,44.60
2023-05-01T02:48:21.866Z,44.59
2023-05-01T02:50:24.850Z,44.79
2023-05-01T02:52:26.683Z,44.83
2023-05-01T02:54:40.662Z,44.63
2023-05-01T02:56:42.244Z,44.63
2023-05-01T02:58:44.407Z,44.60
2023-05-01T03:00:48.023Z,44.83
2023-05-01T03:02:49.529Z,44.55
2023-05-01T03:04:50.992Z,44.41
2023-05-01T03:06:52.455Z,44.66
2023-05-01T03:08:53.978Z,44.60
2023-05-01T03:10:55.472Z,44.28
2023-05-01T03:12:57.129Z,44.40
2023-05-01T03:14:58.617Z,44.54
2023-05-01T03:17:00.053Z,44.50
2023-05-01T03:19:01.572Z,44.43
2023-05-01T03:21:03.017Z,44.48
2023-05-01T03:23:04.824Z,44.71
2023-05-01T03:25:08.221Z,44.58
2023-05-01T03:27:11.629Z,44.58
2023-05-01T03:29:13.354Z,44.79
2023-05-01T03:31:15.297Z,44.88
2023-05-01T03:33:16.807Z,44.74
2023-05-01T03:35:18.283Z,44.91
2023-05-01T03:37:19.737Z,44.67
2023-05-01T03:39:21.388Z,44.88
2023-05-01T03:41:48.935Z,44.87
2023-05-01T03:44:03.788Z,44.75
2023-05-01T03:46:09.756Z,44.75
2023-05-01T03:48:11.327Z,44.73
2023-05-01T03:50:14.420Z,44.80
2023-05-01T03:52:17.729Z,44.77
2023-05-01T03:54:19.837Z,44.89
2023-05-01T03:56:41.688Z,44.90
2023-05-01T03:58:43.615Z,45.06
2023-05-01T04:00:45.804Z,45.15
2023-05-01T04:02:47.486Z,45.15
2023-05-01T04:04:53.491Z,45.14
2023-05-01T04:06:54.958Z,45.11
2023-05-01T04:08:56.406Z,45.16
2023-05-01T04:10:57.831Z,45.40
2023-05-01T04:12:59.317Z,45.31
2023-05-01T04:15:01.061Z,45.40
2023-05-01T04:17:02.960Z,45.47
2023-05-01T04:19:09.236Z,45.56
2023-05-01T04:21:17.608Z,45.49
2023-05-01T04:23:22.098Z,45.55
2023-05-01T04:25:25.905Z,45.62
2023-05-01T04:27:32.676Z,45.60
2023-05-01T04:29:34.144Z,45.68
2023-05-01T04:31:36.222Z,45.78
2023-05-01T04:33:37.866Z,45.77
2023-05-01T04:35:40.281Z,45.95
2023-05-01T04:37:42.484Z,45.76
2023-05-01T04:39:44.633Z,45.77
2023-05-01T04:41:46.917Z,45.84
2023-05-01T04:43:48.656Z,45.77
2023-05-01T04:45:53.998Z,45.95
2023-05-01T04:47:55.445Z,45.92
2023-05-01T04:49:57.098Z,45.96
2023-05-01T04:51:58.745Z,46.09
2023-05-01T04:54:08.004Z,45.99
2023-05-01T04:56:11.482Z,46.20
2023-05-01T04:58:13.708Z,46.13
2023-05-01T05:00:15.696Z,46.22
2023-05-01T05:02:26.167Z,46.23
2023-05-01T05:04:28.457Z,46.11
2023-05-01T05:06:31.350Z,46.37
2023-05-01T05:08:33.445Z,46.25
2023-05-01T05:10:43.115Z,46.47
2023-05-01T05:13:04.807Z,46.58
2023-05-01T05:15:07.094Z,46.59
2023-05-01T05:17:10.378Z,46.43
2023-05-01T05:19:11.837Z,46.42
2023-05-01T05:21:16.425Z,46.58
2023-05-01T05:23:23.000Z,46.43
2023-05-01T05:25:24.914Z,46.56
2023-05-01T05:27:26.851Z,46.32
2023-05-01T05:29:28.340Z,46.60
2023-05-01T05:31:30.095Z,46.48
2023-05-01T05:33:31.874Z,46.37
2023-05-01T05:35:33.348Z,46.45
2023-05-01T05:37:34.878Z,46.39
2023-05-01T05:39:36.674Z,46.29
2023-05-01T05:41:38.188Z,46.47
2023-05-01T05:43:39.633Z,46.38
2023-05-01T05:45:42.869Z,46.29
2023-05-01T05:47:44.368Z,46.35
2023-05-01T05:49:46.062Z,46.26
2023-05-01T05:51:47.555Z,46.22
2023-05-01T05:53:50.757Z,46.28
2023-05-01T05:55:52.568Z,46.38
2023-05-01T05:57:54.011Z,46.31
2023-05-01T05:59:55.660Z,46.46
2023-05-01T06:01:59.329Z,46.31
2023-05-01T06:04:00.980Z,46.22
2023-05-01T06:06:04.727Z,46.24
2023-05-01T06:08:06.210Z,46.12
2023-05-01T06:10:08.377Z,46.17
2023-05-01T06:12:09.829Z,46.15
2023-05-01T06:14:12.212Z,45.92
2023-05-01T06:16:15.091Z,46.13
2023-05-01T06:18:16.790Z,45.78
2023-05-01T06:20:18.391Z,46.02
2023-05-01T06:22:20.561Z,45.91
2023-05-01T06:24:36.611Z,46.11
2023-05-01T06:26:38.460Z,45.95
2023-05-01T06:28:40.133Z,46.01
2023-05-01T06:30:41.631Z,45.73
2023-05-01T06:32:44.597Z,45.83
2023-05-01T06:34:46.286Z,45.60
2023-05-01T06:36:51.487Z,45.44
2023-05-01T06:38:53.005Z,45.40
2023-05-01T06:40:55.616Z,45.37
2023-05-01T06:42:57.755Z,45.26
2023-05-01T06:45:03.702Z,45.36
2023-05-01T06:47:05.416Z,45.09
2023-05-01T06:49:07.813Z,43.89
2023-05-01T06:51:09.565Z,43.40
2023-05-01T06:53:11.296Z,42.98
2023-05-01T06:55:12.954Z,43.12
2023-05-01T06:57:14.384Z,43.34
2023-05-01T06:59:15.911Z,43.56
2023-05-01T07:01:17.607Z,43.81
2023-05-01T07:03:19.245Z,43.61
2023-05-01T07:05:21.051Z,43.68
2023-05-01T07:07:23.299Z,43.46
2023-05-01T07:09:24.810Z,43.57
2023-05-01T07:11:26.882Z,43.61
2023-05-01T07:13:28.432Z,43.33
2023-05-01T07:15:29.887Z,43.03
2023-05-01T07:17:31.347Z,43.36
2023-05-01T07:19:32.854Z,43.14
2023-05-01T07:21:34.367Z,43.45
2023-05-01T07:23:35.825Z,43.04
2023-05-01T07:25:37.769Z,42.97
2023-05-01T07:27:39.388Z,43.32
2023-05-01T07:29:40.827Z,43.25
2023-05-01T07:31:42.514Z,43.16
2023-05-01T07:33:44.865Z,43.37
2023-05-01T07:35:46.522Z,43.08
2023-05-01T07:37:51.622Z,43.27
2023-05-01T07:39:53.156Z,42.94
2023-05-01T07:41:57.224Z,43.03
2023-05-01T07:43:59.756Z,43.04
2023-05-01T07:46:01.593Z,43.20
2023-05-01T07:48:03.254Z,43.18
2023-05-01T07:50:05.676Z,42.99
2023-05-01T07:52:07.815Z,43.07
2023-05-01T07:54:09.261Z,42.62
2023-05-01T07:56:11.203Z,42.88
2023-05-01T07:58:12.743Z,42.81
2023-05-01T08:00:14.767Z,40.08
2023-05-01T08:02:17.580Z,40.72
2023-05-01T08:04:19.270Z,40.89
2023-05-01T08:06:21.112Z,40.92
2023-05-01T08:08:22.805Z,40.77
2023-05-01T08:10:24.285Z,40.93
2023-05-01T08:12:28.803Z,40.56
2023-05-01T08:14:30.798Z,40.41
2023-05-01T08:16:34.022Z,40.24
2023-05-01T08:18:35.685Z,40.02
2023-05-01T08:20:37.145Z,39.90
2023-05-01T08:22:38.540Z,39.84
2023-05-01T08:24:41.908Z,39.70
2023-05-01T08:26:43.467Z,39.58
2023-05-01T08:28:44.895Z,39.60
2023-05-01T08:30:46.443Z,39.49
2023-05-01T08:32:47.915Z,39.79
2023-05-01T08:34:49.648Z,39.49
2023-05-01T08:36:51.075Z,39.79
2023-05-01T08:38:52.863Z,39.59
2023-05-01T08:40:56.607Z,39.35
2023-05-01T08:43:00.348Z,39.19
2023-05-01T08:45:04.115Z,39.23
2023-05-01T08:47:16.166Z,38.38
2023-05-01T08:49:18.535Z,38.86
2023-05-01T08:51:23.000Z,38.92
2023-05-01T08:53:26.074Z,38.94
2023-05-01T08:55:30.053Z,38.51
2023-05-01T08:57:32.887Z,38.53
2023-05-01T08:59:35.331Z,38.37
2023-05-01T09:01:37.970Z,38.19
2023-05-01T09:03:39.625Z,37.97
2023-05-01T09:05:41.135Z,37.97
2023-05-01T09:07:43.486Z,37.76
2023-05-01T09:09:44.921Z,37.83
2023-05-01T09:11:46.478Z,37.91
2023-05-01T09:13:48.139Z,37.71
2023-05-01T09:15:49.761Z,37.37
2023-05-01T09:17:51.339Z,37.47
2023-05-01T09:19:53.275Z,37.41
2023-05-01T09:21:55.830Z,37.14
2023-05-01T09:23:57.378Z,36.97
2023-05-01T09:26:00.533Z,36.99
2023-05-01T09:28:04.954Z,37.07
2023-05-01T09:30:07.543Z,37.03
2023-05-01T09:32:23.521Z,36.89
2023-05-01T09:34:25.055Z,36.96
2023-05-01T09:36:29.714Z,36.87
2023-05-01T09:38:31.771Z,36.32
2023-05-01T09:40:33.793Z,34.54
2023-05-01T09:42:41.110Z,33.10
2023-05-01T09:44:45.732Z,33.93
2023-05-01T09:46:47.658Z,34.06
2023-05-01T09:48:57.287Z,33.45
2023-05-01T09:50:59.269Z,33.72
2023-05-01T09:53:02.095Z,32.61
2023-05-01T09:55:30.010Z,33.16
2023-05-01T09:57:38.270Z,33.61
2023-05-01T09:59:39.785Z,34.28
2023-05-01T10:01:43.566Z,33.84
2023-05-01T10:03:48.081Z,34.46
2023-05-01T10:05:50.033Z,34.79
2023-05-01T10:08:05.707Z,35.10
2023-05-01T10:10:21.185Z,34.93
2023-05-01T10:12:27.107Z,34.91
2023-05-01T10:14:30.387Z,34.56
2023-05-01T10:16:34.829Z,34.34
2023-05-01T10:18:37.749Z,35.20
2023-05-01T10:20:39.485Z,35.10
2023-05-01T10:22:41.521Z,35.16
2023-05-01T10:24:46.226Z,35.92
2023-05-01T10:26:49.077Z,35.91
2023-05-01T10:28:50.590Z,36.49
2023-05-01T10:30:52.975Z,36.36
2023-05-01T10:32:54.652Z,36.40
2023-05-01T10:35:00.661Z,36.94
2023-05-01T10:37:18.138Z,37.00
2023-05-01T10:39:33.428Z,37.11
2023-05-01T10:42:06.221Z,37.14
2023-05-01T10:44:20.759Z,37.55
2023-05-01T10:46:24.135Z,37.49
2023-05-01T10:48:37.742Z,37.93
2023-05-01T10:51:10.737Z,37.79
2023-05-01T10:53:12.413Z,37.88
2023-05-01T10:55:36.453Z,37.49
2023-05-01T10:57:44.477Z,37.29
2023-05-01T11:00:04.992Z,37.15
2023-05-01T11:02:22.262Z,37.42
2023-05-01T11:04:24.492Z,37.34
2023-05-01T11:06:27.135Z,37.70
2023-05-01T11:08:32.546Z,37.78
2023-05-01T11:10:34.006Z,37.76
2023-05-01T11:12:47.530Z,37.98
2023-05-01T11:15:04.565Z,38.18
2023-05-01T11:17:05.979Z,38.00
2023-05-01T11:19:09.870Z,38.61
2023-05-01T11:21:11.453Z,38.93
2023-05-01T11:23:17.585Z,39.72
2023-05-01T11:25:27.694Z,39.45
2023-05-01T11:27:29.262Z,39.04
2023-05-01T11:29:34.782Z,38.69
2023-05-01T11:31:37.100Z,38.65
2023-05-01T11:33:38.597Z,38.69
2023-05-01T11:35:41.000Z,38.66
2023-05-01T11:37:44.682Z,38.54
2023-05-01T11:39:53.237Z,38.81
2023-05-01T11:42:08.831Z,38.62
2023-05-01T11:44:17.983Z,38.73
2023-05-01T11:46:29.849Z,38.96
2023-05-01T11:48:32.303Z,38.87
2023-05-01T11:50:36.053Z,38.77
2023-05-01T11:52:46.131Z,38.97
2023-05-01T11:54:48.485Z,39.02
2023-05-01T11:56:58.739Z,39.21
2023-05-01T11:59:09.387Z,39.12
2023-05-01T12:01:12.767Z,39.06
2023-05-01T12:03:15.558Z,39.25
2023-05-01T12:05:17.364Z,39.18
2023-05-01T12:07:23.395Z,39.66
2023-05-01T12:09:29.137Z,39.46
2023-05-01T12:11:30.792Z,39.74
2023-05-01T12:13:32.829Z,39.76
2023-05-01T12:15:36.868Z,39.74
2023-05-01T12:17:38.378Z,39.98
2023-05-01T12:19:48.935Z,40.17
2023-05-01T12:22:06.068Z,40.62
2023-05-01T12:24:18.708Z,40.49
2023-05-01T12:26:25.629Z,40.92
2023-05-01T12:28:28.019Z,40.54
2023-05-01T12:30:29.874Z,40.96
2023-05-01T12:32:32.378Z,41.11
2023-05-01T12:34:34.329Z,41.23
2023-05-01T12:36:37.589Z,41.24
2023-05-01T12:38:39.145Z,41.35
2023-05-01T12:40:50.660Z,41.40
2023-05-01T12:42:58.219Z,41.89
2023-05-01T12:45:01.320Z,41.65
2023-05-01T12:47:06.094Z,42.04
2023-05-01T12:49:07.589Z,41.94
2023-05-01T12:51:09.135Z,41.85
2023-05-01T12:53:10.842Z,41.97
2023-05-01T12:55:12.817Z,42.11
2023-05-01T12:57:15.960Z,42.30
2023-05-01T12:59:22.548Z,42.32
2023-05-01T13:01:28.102Z,42.78
2023-05-01T13:03:30.940Z,43.61
2023-05-01T13:05:33.587Z,44.08
2023-05-01T13:07:36.282Z,43.65
2023-05-01T13:09:37.910Z,43.59
2023-05-01T13:11:39.330Z,43.69
2023-05-01T13:13:41.681Z,43.42
2023-05-01T13:15:43.168Z,42.94
2023-05-01T13:17:44.618Z,42.89
2023-05-01T13:19:54.401Z,42.74
2023-05-01T13:21:57.511Z,42.96
2023-05-01T13:24:00.893Z,42.74
2023-05-01T13:26:04.313Z,42.61
2023-05-01T13:28:06.933Z,42.74
2023-05-01T13:30:09.756Z,42.32
2023-05-01T13:32:11.431Z,42.77
2023-05-01T13:34:21.818Z,42.72
2023-05-01T13:36:26.716Z,42.52
2023-05-01T13:38:29.086Z,42.36
2023-05-01T13:40:34.153Z,42.45
2023-05-01T13:42:36.426Z,42.49
2023-05-01T13:44:48.209Z,44.63
2023-05-01T13:46:49.966Z,45.83
2023-05-01T13:48:51.897Z,48.40
2023-05-01T13:50:53.416Z,47.42
2023-05-01T13:52:54.872Z,47.02
2023-05-01T13:54:56.862Z,46.57
2023-05-01T13:57:00.958Z,46.68
2023-05-01T13:59:03.145Z,46.73
2023-05-01T14:01:10.493Z,46.60
2023-05-01T14:03:13.064Z,47.85
2023-05-01T14:05:15.759Z,47.50
2023-05-01T14:07:19.096Z,47.40
2023-05-01T14:09:20.757Z,47.36
2023-05-01T14:11:22.185Z,47.13
2023-05-01T14:13:24.815Z,47.21
2023-05-01T14:15:26.877Z,47.03
2023-05-01T14:17:36.352Z,46.98
2023-05-01T14:19:39.678Z,46.67
2023-05-01T14:21:44.323Z,46.35
2023-05-01T14:23:45.888Z,45.81
2023-05-01T14:25:49.080Z,45.98
2023-05-01T14:27:52.504Z,45.46
2023-05-01T14:29:54.420Z,45.00
2023-05-01T14:31:56.617Z,45.12
2023-05-01T14:34:01.165Z,45.26
2023-05-01T14:36:02.588Z,45.15
2023-05-01T14:38:12.668Z,44.80
2023-05-01T14:40:14.462Z,44.61
2023-05-01T14:42:15.982Z,44.70
2023-05-01T14:44:20.409Z,43.68
2023-05-01T14:46:27.299Z,43.61
2023-05-01T14:48:36.241Z,45.25
2023-05-01T14:50:38.514Z,44.82
2023-05-01T14:52:39.973Z,45.09
2023-05-01T14:54:45.318Z,44.29
2023-05-01T14:56:48.361Z,43.76
2023-05-01T14:58:50.069Z,43.81
2023-05-01T15:00:51.699Z,44.75
2023-05-01T15:02:55.416Z,45.41
2023-05-01T15:04:57.180Z,44.51
2023-05-01T15:06:58.837Z,44.75
2023-05-01T15:09:00.869Z,45.81
2023-05-01T15:11:02.337Z,45.68
2023-05-01T15:13:03.745Z,45.25
2023-05-01T15:15:06.318Z,44.97
2023-05-01T15:17:07.839Z,44.22
2023-05-01T15:19:09.289Z,43.58
2023-05-01T15:21:11.063Z,43.73
2023-05-01T15:23:15.116Z,43.51
2023-05-01T15:25:18.997Z,43.46
2023-05-01T15:27:23.676Z,43.31
2023-05-01T15:29:28.408Z,43.23
2023-05-01T15:31:32.864Z,44.01
2023-05-01T15:33:38.168Z,43.19
2023-05-01T15:35:39.923Z,43.64
2023-05-01T15:37:41.376Z,44.15
2023-05-01T15:39:42.848Z,44.62
2023-05-01T15:41:44.278Z,45.19
2023-05-01T15:43:45.765Z,45.41
2023-05-01T15:45:47.309Z,45.54
2023-05-01T15:47:48.908Z,45.02
2023-05-01T15:49:50.382Z,45.34
2023-05-01T15:51:51.922Z,45.83
2023-05-01T15:53:53.347Z,45.63
2023-05-01T15:55:58.450Z,45.84
2023-05-01T15:57:59.956Z,46.06
2023-05-01T16:00:01.851Z,46.48
2023-05-01T16:02:07.359Z,46.90
2023-05-01T16:04:08.802Z,46.67
2023-05-01T16:06:11.494Z,46.69
2023-05-01T16:08:13.148Z,46.94
2023-05-01T16:10:14.601Z,47.02
2023-05-01T16:12:16.046Z,46.77
2023-05-01T16:14:17.747Z,46.14
2023-05-01T16:16:24.997Z,45.56
2023-05-01T16:18:26.489Z,45.87
2023-05-01T16:20:34.107Z,45.15
2023-05-01T16:22:35.549Z,45.31
2023-05-01T16:24:38.403Z,44.74
2023-05-01T16:26:40.741Z,44.92
2023-05-01T16:28:42.442Z,44.79
2023-05-01T16:30:44.945Z,44.92
2023-05-01T16:32:46.398Z,44.69
2023-05-01T16:34:49.268Z,44.50
2023-05-01T16:36:50.732Z,44.75
2023-05-01T16:38:52.513Z,44.63
2023-05-01T16:40:53.954Z,44.86
2023-05-01T16:42:56.099Z,44.72
2023-05-01T16:44:57.585Z,44.82
2023-05-01T16:46:59.028Z,44.95
2023-05-01T16:49:00.593Z,45.01
2023-05-01T16:51:05.277Z,44.63
2023-05-01T16:53:06.734Z,44.80
2023-05-01T16:55:09.137Z,44.87
2023-05-01T16:57:10.735Z,44.68
2023-05-01T16:59:12.348Z,44.95
2023-05-01T17:01:13.826Z,44.75
2023-05-01T17:03:16.157Z,44.70
2023-05-01T17:05:17.832Z,44.69
2023-05-01T17:07:22.503Z,44.89
2023-05-01T17:09:23.974Z,44.77
2023-05-01T17:11:31.807Z,44.88
2023-05-01T17:13:33.527Z,45.05
2023-05-01T17:15:34.970Z,44.93
2023-05-01T17:17:39.166Z,45.10
2023-05-01T17:19:41.039Z,45.95
2023-05-01T17:21:43.369Z,46.00
2023-05-01T17:23:44.916Z,46.29
2023-05-01T17:25:46.391Z,46.04
2023-05-01T17:27:47.801Z,46.51
2023-05-01T17:29:49.349Z,46.20
2023-05-01T17:31:50.918Z,46.18
2023-05-01T17:33:52.443Z,46.21
2023-05-01T17:35:55.204Z,46.34
2023-05-01T17:37:57.452Z,46.16
2023-05-01T17:39:59.147Z,46.26
2023-05-01T17:42:02.334Z,46.45
2023-05-01T17:44:03.846Z,46.52
2023-05-01T17:46:06.204Z,46.27
2023-05-01T17:48:08.105Z,46.37
2023-05-01T17:50:11.475Z,46.29
2023-05-01T17:52:12.895Z,46.42
2023-05-01T17:54:16.624Z,46.44
2023-05-01T17:56:21.003Z,46.48
2023-05-01T17:58:23.724Z,46.23
2023-05-01T18:00:28.793Z,46.44
2023-05-01T18:02:30.984Z,46.25
2023-05-01T18:04:32.546Z,46.38
2023-05-01T18:06:34.079Z,46.32
2023-05-01T18:08:35.705Z,46.48
2023-05-01T18:10:37.161Z,46.57
2023-05-01T18:12:38.850Z,46.66
2023-05-01T18:14:40.456Z,46.66
2023-05-01T18:16:42.023Z,46.57
2023-05-01T18:18:43.703Z,46.84
2023-05-01T18:20:45.124Z,46.87
2023-05-01T18:22:46.579Z,46.90
2023-05-01T18:24:48.270Z,46.97
2023-05-01T18:26:49.745Z,46.84
2023-05-01T18:28:51.167Z,46.71
2023-05-01T18:30:52.586Z,46.96
2023-05-01T18:32:54.021Z,46.82
2023-05-01T18:34:55.783Z,46.86
2023-05-01T18:36:57.256Z,47.11
2023-05-01T18:38:58.854Z,47.03
2023-05-01T18:41:00.425Z,46.86
2023-05-01T18:43:01.922Z,47.02
2023-05-01T18:45:03.967Z,47.20
2023-05-01T18:47:05.727Z,47.00
2023-05-01T18:49:07.307Z,47.16
2023-05-01T18:51:09.649Z,47.18
2023-05-01T18:53:11.171Z,47.14
2023-05-01T18:55:12.765Z,47.21
2023-05-01T18:57:14.232Z,47.24
2023-05-01T18:59:17.015Z,47.32
2023-05-01T19:01:18.519Z,47.42
2023-05-01T19:03:20.082Z,47.30
2023-05-01T19:05:22.727Z,47.43
2023-05-01T19:07:25.219Z,47.58
2023-05-01T19:09:26.651Z,47.48
2023-05-01T19:11:31.592Z,47.55
2023-05-01T19:13:33.296Z,47.58
2023-05-01T19:15:34.894Z,47.77
2023-05-01T19:17:36.686Z,47.80
2023-05-01T19:19:38.202Z,47.63
2023-05-01T19:21:39.625Z,47.68
2023-05-01T19:23:43.028Z,47.88
2023-05-01T19:25:44.492Z,47.83
2023-05-01T19:27:45.984Z,47.85
2023-05-01T19:29:47.481Z,47.79
2023-05-01T19:31:49.262Z,47.73
2023-05-01T19:33:53.640Z,47.94
2023-05-01T19:35:55.897Z,48.00
2023-05-01T19:37:58.571Z,47.81
2023-05-01T19:40:00.224Z,47.79
2023-05-01T19:42:02.776Z,47.87
2023-05-01T19:44:04.323Z,47.94
2023-05-01T19:46:07.034Z,48.07
2023-05-01T19:48:08.693Z,48.04
2023-05-01T19:50:10.720Z,48.04
2023-05-01T19:52:12.141Z,48.23
2023-05-01T19:54:13.582Z,48.04
2023-05-01T19:56:15.035Z,48.22
2023-05-01T19:58:16.530Z,48.03
2023-05-01T20:00:18.515Z,48.24
2023-05-01T20:02:20.105Z,48.11
2023-05-01T20:04:23.011Z,48.23
2023-05-01T20:06:24.727Z,48.27
2023-05-01T20:08:26.742Z,48.35
2023-05-01T20:10:28.254Z,48.32
2023-05-01T20:12:30.388Z,48.32
2023-05-01T20:14:34.024Z,48.44
2023-05-01T20:16:36.049Z,48.50
2023-05-01T20:18:37.728Z,48.46
2023-05-01T20:20:39.462Z,48.27
2023-05-01T20:22:40.910Z,48.64
2023-05-01T20:24:42.531Z,48.42
2023-05-01T20:26:44.000Z,48.47
2023-05-01T20:28:45.776Z,48.58
2023-05-01T20:30:48.481Z,48.74
2023-05-01T20:32:50.087Z,48.55
2023-05-01T20:34:55.191Z,48.53
2023-05-01T20:36:56.658Z,48.54
2023-05-01T20:38:58.220Z,48.69
2023-05-01T20:40:59.673Z,48.85
2023-05-01T20:43:01.195Z,48.75
2023-05-01T20:45:02.718Z,48.76
2023-05-01T20:47:04.114Z,48.78
2023-05-01T20:49:08.514Z,48.73
2023-05-01T20:51:10.268Z,48.83
2023-05-01T20:53:11.849Z,48.86
2023-05-01T20:55:13.555Z,48.71
2023-05-01T20:57:21.019Z,48.77
2023-05-01T20:59:22.473Z,48.57
2023-05-01T21:01:24.033Z,48.93
2023-05-01T21:03:26.531Z,48.99
2023-05-01T21:05:28.052Z,48.92
2023-05-01T21:07:29.696Z,49.02
2023-05-01T21:09:31.327Z,49.21
2023-05-01T21:11:32.957Z,49.36
2023-05-01T21:13:43.535Z,49.10
2023-05-01T21:15:45.155Z,49.27
2023-05-01T21:17:46.885Z,49.40
2023-05-01T21:19:48.500Z,49.40
2023-05-01T21:21:50.248Z,49.12
2023-05-01T21:23:52.535Z,49.14
2023-05-01T21:25:54.393Z,49.32
2023-05-01T21:27:55.884Z,49.23
2023-05-01T21:29:58.412Z,49.29
2023-05-01T21:32:04.165Z,49.38
2023-05-01T21:34:06.488Z,49.51
2023-05-01T21:36:07.949Z,49.36
2023-05-01T21:38:09.856Z,49.52
2023-05-01T21:40:14.797Z,49.47
2023-05-01T21:42:19.002Z,49.32
2023-05-01T21:44:22.530Z,49.82
2023-05-01T21:46:24.157Z,49.71
2023-05-01T21:48:25.678Z,49.70
2023-05-01T21:50:33.668Z,49.60
2023-05-01T21:52:35.583Z,49.63
2023-05-01T21:54:38.488Z,49.36
2023-05-01T21:56:40.051Z,49.61
2023-05-01T21:58:41.572Z,49.76
2023-05-01T22:00:43.256Z,49.63
2023-05-01T22:02:47.961Z,49.44
2023-05-01T22:04:54.587Z,49.61
2023-05-01T22:06:56.214Z,49.63
2023-05-01T22:08:57.676Z,49.59
2023-05-01T22:10:59.124Z,49.70
2023-05-01T22:13:00.814Z,49.74
2023-05-01T22:15:02.682Z,49.75
2023-05-01T22:17:04.653Z,49.77
2023-05-01T22:19:06.313Z,49.99
2023-05-01T22:21:07.793Z,49.79
2023-05-01T22:23:09.207Z,49.89
2023-05-01T22:25:12.224Z,49.74
2023-05-01T22:27:15.862Z,49.86
2023-05-01T22:29:18.722Z,49.69
2023-05-01T22:31:21.511Z,49.80
2023-05-01T22:33:24.401Z,49.74
2023-05-01T22:35:26.062Z,49.77
2023-05-01T22:37:27.582Z,49.80
2023-05-01T22:39:33.473Z,49.82
2023-05-01T22:41:35.146Z,49.86
2023-05-01T22:43:37.168Z,50.09
2023-05-01T22:45:39.537Z,49.85
2023-05-01T22:47:44.136Z,49.90
2023-05-01T22:49:45.751Z,49.87
2023-05-01T22:51:47.195Z,50.06
2023-05-01T22:53:49.561Z,50.04
2023-05-01T22:55:51.030Z,50.08
2023-05-01T22:57:52.599Z,50.26
2023-05-01T22:59:54.335Z,50.09
2023-05-01T23:01:56.022Z,50.06
2023-05-01T23:03:58.046Z,50.19
2023-05-01T23:06:02.602Z,50.10
2023-05-01T23:08:04.533Z,50.03
2023-05-01T23:10:14.548Z,50.18
2023-05-01T23:12:22.780Z,49.98
2023-05-01T23:14:25.698Z,50.26
2023-05-01T23:16:27.644Z,50.30
2023-05-01T23:18:33.205Z,50.19
2023-05-01T23:20:39.961Z,50.19
2023-05-01T23:22:41.760Z,50.18
2023-05-01T23:24:50.517Z,50.44
2023-05-01T23:26:52.136Z,50.24
2023-05-01T23:28:56.313Z,50.25
2023-05-01T23:30:59.808Z,50.28
2023-05-01T23:33:01.379Z,50.31
2023-05-01T23:35:12.578Z,50.39
2023-05-01T23:37:21.202Z,50.84
2023-05-01T23:39:22.751Z,50.33
2023-05-01T23:41:24.990Z,50.26
2023-05-01T23:43:26.735Z,50.50
2023-05-01T23:45:28.323Z,50.48
2023-05-01T23:47:30.130Z,50.47
2023-05-01T23:49:32.278Z,50.39
2023-05-01T23:51:33.983Z,50.39
2023-05-01T23:53:38.789Z,50.43
2023-05-01T23:55:42.685Z,50.46
2023-05-01T23:57:45.364Z,50.59
2023-05-01T23:59:50.135Z,50.48
